createdAt,value
2022-10-05T00:01:30.910Z,99.90
2022-10-05T00:04:17.742Z,99.90
2022-10-05T00:06:53.516Z,99.90
2022-10-05T00:09:26.743Z,99.90
2022-10-05T00:11:56.926Z,99.90
2022-10-05T00:14:33.363Z,99.90
2022-10-05T00:17:08.729Z,99.90
2022-10-05T00:19:52.345Z,99.90
2022-10-05T00:22:25.449Z,99.90
2022-10-05T00:25:05.163Z,99.90
2022-10-05T00:27:39.058Z,99.90
2022-10-05T00:30:19.640Z,99.90
2022-10-05T00:32:59.467Z,99.90
2022-10-05T00:35:31.635Z,99.90
2022-10-05T00:38:01.739Z,99.90
2022-10-05T00:40:50.974Z,99.90
2022-10-05T00:43:59.845Z,99.90
2022-10-05T00:46:41.106Z,99.90
2022-10-05T00:49:44.916Z,99.90
2022-10-05T00:52:26.053Z,99.90
2022-10-05T00:55:09.203Z,99.90
2022-10-05T00:57:59.044Z,99.90
2022-10-05T01:00:35.480Z,99.90
2022-10-05T01:03:17.663Z,99.90
2022-10-05T01:06:05.575Z,99.90
2022-10-05T01:08:56.819Z,99.90
2022-10-05T01:11:42.252Z,99.90
2022-10-05T01:14:24.491Z,99.90
2022-10-05T01:17:10.875Z,99.90
2022-10-05T01:20:21.008Z,99.90
2022-10-05T01:23:32.680Z,99.90
2022-10-05T01:26:36.759Z,99.90
2022-10-05T01:29:25.015Z,99.90
2022-10-05T01:32:08.508Z,99.90
2022-10-05T01:34:48.968Z,99.90
2022-10-05T01:37:41.266Z,99.90
2022-10-05T01:40:22.611Z,99.90
2022-10-05T01:43:09.015Z,99.90
2022-10-05T01:45:54.780Z,99.90
2022-10-05T01:48:44.899Z,99.90
2022-10-05T01:51:29.679Z,99.90
2022-10-05T01:54:18.041Z,99.90
2022-10-05T01:57:06.516Z,99.90
2022-10-05T01:59:58.796Z,99.90
2022-10-05T02:02:37.837Z,99.90
2022-10-05T02:05:13.948Z,99.90
2022-10-05T02:07:55.812Z,99.90
2022-10-05T02:10:38.554Z,99.90
2022-10-05T02:13:17.999Z,99.90
2022-10-05T02:16:03.609Z,99.90
2022-10-05T02:18:49.561Z,99.90
2022-10-05T02:21:24.755Z,99.90
2022-10-05T02:24:03.131Z,99.90
2022-10-05T02:26:38.503Z,99.90
2022-10-05T02:29:13.189Z,99.90
2022-10-05T02:31:53.765Z,99.90
2022-10-05T02:34:32.348Z,99.90
2022-10-05T02:37:24.151Z,99.90
2022-10-05T02:40:29.225Z,99.90
2022-10-05T02:43:17.438Z,99.90
2022-10-05T02:46:00.866Z,99.90
2022-10-05T02:48:45.749Z,99.90
2022-10-05T02:51:28.432Z,99.90
2022-10-05T02:54:16.296Z,99.90
2022-10-05T02:56:56.745Z,99.90
2022-10-05T02:59:35.584Z,99.90
2022-10-05T03:02:29.305Z,99.90
2022-10-05T03:05:21.510Z,99.90
2022-10-05T03:08:04.326Z,99.90
2022-10-05T03:11:01.657Z,99.90
2022-10-05T03:13:44.075Z,99.90
2022-10-05T03:16:41.073Z,99.90
2022-10-05T03:19:33.274Z,99.90
2022-10-05T03:22:16.866Z,99.90
2022-10-05T03:25:25.285Z,99.90
2022-10-05T03:28:15.647Z,99.90
2022-10-05T03:30:59.854Z,99.90
2022-10-05T03:33:45.077Z,99.90
2022-10-05T03:36:26.054Z,99.90
2022-10-05T03:39:14.115Z,99.90
2022-10-05T03:41:57.582Z,99.90
2022-10-05T03:44:59.670Z,99.90
2022-10-05T03:47:44.804Z,99.90
2022-10-05T03:50:40.658Z,99.90
2022-10-05T03:53:31.857Z,99.90
2022-10-05T03:56:13.145Z,99.90
2022-10-05T03:58:59.656Z,99.90
2022-10-05T04:01:48.593Z,99.90
2022-10-05T04:04:30.378Z,99.90
2022-10-05T04:07:05.041Z,99.90
2022-10-05T04:09:42.302Z,99.90
2022-10-05T04:12:30.935Z,99.90
2022-10-05T04:15:19.059Z,99.90
2022-10-05T04:17:55.370Z,99.90
2022-10-05T04:20:33.658Z,99.90
2022-10-05T04:23:19.897Z,99.90
2022-10-05T04:26:02.289Z,99.90
2022-10-05T04:28:55.313Z,99.90
2022-10-05T04:31:51.420Z,99.90
2022-10-05T04:35:00.932Z,99.90
2022-10-05T04:37:48.584Z,99.90
2022-10-05T04:40:42.027Z,99.90
2022-10-05T04:43:22.258Z,99.90
2022-10-05T04:46:17.768Z,99.90
2022-10-05T04:49:13.643Z,99.90
2022-10-05T04:51:58.405Z,99.90
2022-10-05T04:54:44.471Z,99.90
2022-10-05T04:57:27.315Z,99.90
2022-10-05T05:00:13.580Z,99.90
2022-10-05T05:03:17.997Z,99.90
2022-10-05T05:06:16.982Z,99.90
2022-10-05T05:09:29.535Z,99.90
2022-10-05T05:12:22.422Z,99.90
2022-10-05T05:15:37.344Z,99.90
2022-10-05T05:18:49.704Z,99.90
2022-10-05T05:21:42.321Z,99.90
2022-10-05T05:24:31.761Z,99.90
2022-10-05T05:27:45.669Z,99.90
2022-10-05T05:30:29.876Z,99.90
2022-10-05T05:33:22.026Z,99.90
2022-10-05T05:36:28.717Z,99.90
2022-10-05T05:39:40.989Z,99.90
2022-10-05T05:42:35.037Z,99.90
2022-10-05T05:45:19.295Z,99.90
2022-10-05T05:47:57.476Z,99.90
2022-10-05T05:50:59.140Z,99.90
2022-10-05T05:53:40.746Z,99.90
2022-10-05T05:56:16.328Z,99.90
2022-10-05T05:58:55.724Z,99.90
2022-10-05T06:01:34.078Z,99.90
2022-10-05T06:04:14.906Z,99.90
2022-10-05T06:07:00.940Z,99.90
2022-10-05T06:09:44.420Z,99.90
2022-10-05T06:12:21.780Z,99.90
2022-10-05T06:14:58.270Z,99.90
2022-10-05T06:17:37.851Z,99.90
2022-10-05T06:20:18.971Z,99.90
2022-10-05T06:22:54.412Z,99.90
2022-10-05T06:25:42.334Z,99.90
2022-10-05T06:28:22.585Z,99.90
2022-10-05T06:31:06.705Z,99.90
2022-10-05T06:34:02.571Z,99.90
2022-10-05T06:36:51.213Z,99.90
2022-10-05T06:40:02.301Z,99.90
2022-10-05T06:43:08.447Z,99.90
2022-10-05T06:45:59.227Z,99.90
2022-10-05T06:49:10.689Z,99.90
2022-10-05T06:51:52.111Z,99.90
2022-10-05T06:54:54.995Z,99.90
2022-10-05T06:58:26.517Z,99.90
2022-10-05T07:01:05.913Z,99.90
2022-10-05T07:03:56.943Z,99.90
2022-10-05T07:06:37.194Z,99.90
2022-10-05T07:09:27.921Z,99.90
2022-10-05T07:12:31.439Z,99.90
2022-10-05T07:15:37.441Z,99.90
2022-10-05T07:18:52.537Z,99.90
2022-10-05T07:21:39.423Z,99.90
2022-10-05T07:24:33.140Z,99.90
2022-10-05T07:27:19.332Z,99.90
2022-10-05T07:30:04.744Z,99.90
2022-10-05T07:32:53.008Z,99.90
2022-10-05T07:35:50.893Z,99.90
2022-10-05T07:38:39.017Z,99.90
2022-10-05T07:41:19.331Z,99.90
2022-10-05T07:44:11.619Z,99.90
2022-10-05T07:46:54.501Z,99.90
2022-10-05T07:49:40.877Z,99.90
2022-10-05T07:52:19.916Z,99.90
2022-10-05T07:55:05.063Z,99.90
2022-10-05T07:57:49.161Z,99.90
2022-10-05T08:00:24.044Z,99.90
2022-10-05T08:03:01.748Z,99.90
2022-10-05T08:05:44.420Z,99.90
2022-10-05T08:08:35.379Z,99.90
2022-10-05T08:11:20.208Z,99.90
2022-10-05T08:13:57.821Z,99.90
2022-10-05T08:16:39.289Z,99.90
2022-10-05T08:19:24.027Z,99.90
2022-10-05T08:22:05.721Z,99.90
2022-10-05T08:24:46.688Z,99.90
2022-10-05T08:27:28.006Z,99.90
2022-10-05T08:30:04.831Z,99.90
2022-10-05T08:32:47.468Z,99.90
2022-10-05T08:35:35.076Z,99.90
2022-10-05T08:38:16.844Z,99.90
2022-10-05T08:41:40.040Z,99.90
2022-10-05T08:45:06.609Z,99.90
2022-10-05T08:48:16.924Z,99.90
2022-10-05T08:51:28.308Z,73.50
2022-10-05T08:54:50.549Z,37.70
2022-10-05T08:57:59.926Z,50.70
2022-10-05T09:00:52.448Z,24.40
2022-10-05T09:03:56.727Z,11.10
2022-10-05T09:07:12.884Z,1.00
2022-10-05T09:10:30.765Z,1.00
2022-10-05T09:14:01.750Z,1.00
2022-10-05T09:17:00.002Z,1.00
2022-10-05T09:20:23.183Z,99.90
2022-10-05T09:23:03.172Z,1.00
2022-10-05T09:26:02.307Z,99.90
2022-10-05T09:28:41.498Z,99.90
2022-10-05T09:32:04.547Z,1.00
2022-10-05T09:35:09.035Z,1.00
2022-10-05T09:38:18.263Z,99.90
2022-10-05T09:41:43.012Z,99.90
2022-10-05T09:44:58.896Z,99.90
2022-10-05T09:48:29.119Z,1.00
2022-10-05T09:51:52.550Z,1.00
2022-10-05T09:55:27.698Z,99.90
2022-10-05T09:58:43.055Z,99.90
2022-10-05T10:01:46.566Z,1.00
2022-10-05T10:05:05.857Z,1.00
2022-10-05T10:08:10.281Z,99.90
2022-10-05T10:11:13.011Z,99.90
2022-10-05T10:14:29.600Z,1.00
2022-10-05T10:17:34.299Z,1.00
2022-10-05T10:20:25.709Z,1.00
2022-10-05T10:23:40.300Z,1.00
2022-10-05T10:26:54.230Z,1.00
2022-10-05T10:30:13.843Z,1.00
2022-10-05T10:33:31.983Z,99.90
2022-10-05T10:36:16.568Z,1.00
2022-10-05T10:39:02.904Z,1.00
2022-10-05T10:42:23.798Z,99.90
2022-10-05T10:45:45.477Z,99.90
2022-10-05T10:49:02.862Z,1.00
2022-10-05T10:52:21.312Z,24.40
2022-10-05T10:55:36.928Z,99.90
2022-10-05T10:59:00.431Z,1.00
2022-10-05T11:01:45.430Z,1.00
2022-10-05T11:04:50.439Z,1.00
2022-10-05T11:07:48.565Z,1.00
2022-10-05T11:11:08.338Z,99.90
2022-10-05T11:14:16.859Z,99.90
2022-10-05T11:17:33.556Z,99.90
2022-10-05T11:20:44.851Z,1.00
2022-10-05T11:23:59.496Z,1.00
2022-10-05T11:27:12.737Z,99.90
2022-10-05T11:30:08.443Z,1.00
2022-10-05T11:33:22.968Z,1.00
2022-10-05T11:36:42.516Z,1.00
2022-10-05T11:39:46.312Z,99.90
2022-10-05T11:42:57.176Z,99.90
2022-10-05T11:45:32.119Z,99.90
2022-10-05T11:48:50.793Z,1.00
2022-10-05T11:51:55.203Z,1.00
2022-10-05T11:55:10.250Z,1.00
2022-10-05T11:57:50.705Z,1.00
2022-10-05T12:00:27.912Z,1.00
2022-10-05T12:03:26.174Z,1.00
2022-10-05T12:06:36.615Z,1.00
2022-10-05T12:09:28.479Z,1.00
2022-10-05T12:12:16.304Z,1.00
2022-10-05T12:15:02.003Z,1.00
2022-10-05T12:17:45.218Z,1.00
2022-10-05T12:20:23.921Z,1.00
2022-10-05T12:23:03.205Z,1.00
2022-10-05T12:25:42.942Z,1.00
2022-10-05T12:28:18.486Z,1.00
2022-10-05T12:31:15.173Z,1.00
2022-10-05T12:33:59.842Z,1.00
2022-10-05T12:37:02.437Z,1.00
2022-10-05T12:39:42.296Z,1.00
2022-10-05T12:42:31.875Z,1.00
2022-10-05T12:45:26.241Z,1.00
2022-10-05T12:48:21.480Z,1.00
2022-10-05T12:50:57.102Z,1.00
2022-10-05T12:53:51.828Z,1.00
2022-10-05T12:56:39.496Z,1.00
2022-10-05T12:59:32.476Z,1.00
2022-10-05T13:02:17.034Z,1.00
2022-10-05T13:04:58.644Z,1.00
2022-10-05T13:07:56.437Z,1.00
2022-10-05T13:10:37.826Z,1.00
2022-10-05T13:13:40.618Z,1.00
2022-10-05T13:16:37.639Z,1.00
2022-10-05T13:19:28.430Z,1.00
2022-10-05T13:25:27.173Z,1.00
2022-10-05T13:28:19.642Z,1.00
2022-10-05T13:31:03.984Z,1.20
2022-10-05T13:34:10.231Z,12.20
2022-10-05T13:37:08.307Z,1.00
2022-10-05T13:40:17.522Z,1.00
2022-10-05T13:42:59.169Z,1.00
2022-10-05T13:45:44.563Z,1.00
2022-10-05T13:48:30.484Z,1.00
2022-10-05T13:51:18.420Z,9.40
2022-10-05T13:53:56.100Z,13.20
2022-10-05T13:56:34.612Z,27.20
2022-10-05T13:59:29.162Z,23.60
2022-10-05T14:02:05.010Z,16.30
2022-10-05T14:04:50.837Z,28.60
2022-10-05T14:07:42.161Z,29.30
2022-10-05T14:10:31.381Z,22.10
2022-10-05T14:13:26.586Z,27.60
2022-10-05T14:16:04.826Z,20.90
2022-10-05T14:18:42.587Z,20.30
2022-10-05T14:21:24.878Z,28.50
2022-10-05T14:24:08.574Z,46.20
2022-10-05T14:26:41.482Z,41.50
2022-10-05T14:29:24.913Z,37.80
2022-10-05T14:32:04.512Z,38.90
2022-10-05T14:34:39.358Z,47.10
2022-10-05T14:37:24.753Z,56.90
2022-10-05T14:40:23.315Z,50.20
2022-10-05T14:42:57.694Z,55.80
2022-10-05T14:45:33.453Z,61.50
2022-10-05T14:48:14.492Z,66.20
2022-10-05T14:51:02.293Z,70.50
2022-10-05T14:53:43.545Z,70.00
2022-10-05T14:56:50.556Z,75.30
2022-10-05T15:00:04.014Z,90.40
2022-10-05T15:03:18.797Z,96.60
2022-10-05T15:05:56.482Z,99.50
2022-10-05T15:09:16.462Z,98.90
2022-10-05T15:12:03.439Z,99.90
2022-10-05T15:14:38.527Z,99.90
2022-10-05T15:17:26.442Z,98.60
2022-10-05T15:20:19.354Z,99.90
2022-10-05T15:22:58.224Z,99.90
2022-10-05T15:25:40.491Z,99.90
2022-10-05T15:28:34.390Z,99.90
2022-10-05T15:31:22.745Z,99.90
2022-10-05T15:34:04.200Z,99.90
2022-10-05T15:36:48.052Z,99.90
2022-10-05T15:39:34.811Z,99.90
2022-10-05T15:42:16.957Z,99.90
2022-10-05T15:45:16.688Z,99.90
2022-10-05T15:48:05.714Z,99.90
2022-10-05T15:50:50.536Z,99.90
2022-10-05T15:53:28.207Z,99.90
2022-10-05T15:56:09.959Z,99.90
2022-10-05T15:58:59.674Z,99.90
2022-10-05T16:01:52.574Z,99.90
2022-10-05T16:04:41.355Z,99.90
2022-10-05T16:07:32.592Z,99.90
2022-10-05T16:10:16.431Z,99.90
2022-10-05T16:13:06.959Z,99.90
2022-10-05T16:15:50.065Z,99.90
2022-10-05T16:18:56.515Z,99.90
2022-10-05T16:21:44.140Z,99.90
2022-10-05T16:24:43.239Z,99.90
2022-10-05T16:27:26.383Z,99.90
2022-10-05T16:30:08.778Z,99.90
2022-10-05T16:32:46.189Z,99.90
2022-10-05T16:35:38.436Z,99.90
2022-10-05T16:38:36.172Z,99.90
2022-10-05T16:41:16.170Z,99.90
2022-10-05T16:43:56.761Z,99.90
2022-10-05T16:46:40.567Z,99.90
2022-10-05T16:49:34.421Z,99.90
2022-10-05T16:52:13.069Z,99.90
2022-10-05T16:54:49.307Z,99.90
2022-10-05T16:57:29.117Z,99.90
2022-10-05T17:00:23.841Z,99.90
2022-10-05T17:03:18.242Z,99.90
2022-10-05T17:06:44.678Z,99.90
2022-10-05T17:10:20.165Z,99.90
2022-10-05T17:13:16.108Z,99.90
2022-10-05T17:16:06.654Z,99.90
2022-10-05T17:19:15.260Z,99.90
2022-10-05T17:21:53.502Z,99.90
2022-10-05T17:24:59.120Z,99.90
2022-10-05T17:27:38.444Z,99.90
2022-10-05T17:30:38.920Z,99.90
2022-10-05T17:33:27.671Z,99.90
2022-10-05T17:36:19.126Z,99.90
2022-10-05T17:38:55.183Z,99.90
2022-10-05T17:41:30.537Z,99.90
2022-10-05T17:44:26.140Z,99.90
2022-10-05T17:47:00.272Z,99.90
2022-10-05T17:50:11.175Z,99.90
2022-10-05T17:52:53.929Z,99.90
2022-10-05T17:55:49.042Z,99.90
2022-10-05T17:59:12.331Z,99.90
2022-10-05T18:01:43.562Z,99.90
2022-10-05T18:04:34.651Z,99.90
2022-10-05T18:07:23.942Z,99.90
2022-10-05T18:10:02.328Z,99.90
2022-10-05T18:12:51.061Z,99.90
2022-10-05T18:15:51.589Z,99.90
2022-10-05T18:19:00.756Z,99.90
2022-10-05T18:22:03.362Z,99.90
2022-10-05T18:25:04.006Z,99.90
2022-10-05T18:28:16.653Z,99.90
2022-10-05T18:31:15.835Z,99.90
2022-10-05T18:34:00.032Z,99.90
2022-10-05T18:37:03.695Z,99.90
2022-10-05T18:39:59.909Z,99.90
2022-10-05T18:42:48.489Z,99.90
2022-10-05T18:45:28.748Z,99.90
2022-10-05T18:48:22.488Z,99.90
2022-10-05T18:51:06.033Z,99.90
2022-10-05T18:53:45.434Z,99.90
2022-10-05T18:56:21.025Z,99.90
2022-10-05T18:59:20.010Z,99.90
2022-10-05T19:02:25.139Z,99.90
2022-10-05T19:05:47.562Z,99.90
2022-10-05T19:08:28.920Z,99.90
2022-10-05T19:11:10.817Z,99.90
2022-10-05T19:13:51.658Z,99.90
2022-10-05T19:16:47.650Z,99.90
2022-10-05T19:19:54.072Z,99.90
2022-10-05T19:22:48.779Z,99.90
2022-10-05T19:25:36.655Z,99.90
2022-10-05T19:28:27.046Z,99.90
2022-10-05T19:31:21.012Z,99.90
2022-10-05T19:34:16.409Z,99.90
2022-10-05T19:37:14.934Z,99.90
2022-10-05T19:39:58.168Z,99.90
2022-10-05T19:43:06.488Z,99.90
2022-10-05T19:45:45.899Z,99.90
2022-10-05T19:48:35.918Z,99.90
2022-10-05T19:51:20.681Z,99.90
2022-10-05T19:53:52.017Z,99.90
2022-10-05T19:56:28.784Z,99.90
2022-10-05T19:59:01.057Z,99.90
2022-10-05T20:01:35.453Z,99.90
2022-10-05T20:04:06.951Z,99.90
2022-10-05T20:06:39.641Z,99.90
2022-10-05T20:09:24.212Z,99.90
2022-10-05T20:11:57.527Z,99.90
2022-10-05T20:14:59.202Z,99.90
2022-10-05T20:17:43.360Z,99.90
2022-10-05T20:20:38.317Z,99.90
2022-10-05T20:23:26.018Z,99.90
2022-10-05T20:26:09.315Z,99.90
2022-10-05T20:28:42.044Z,99.90
2022-10-05T20:31:14.491Z,99.90
2022-10-05T20:33:44.640Z,99.90
2022-10-05T20:36:14.720Z,99.90
2022-10-05T20:38:46.074Z,99.90
2022-10-05T20:41:16.647Z,99.90
2022-10-05T20:43:51.487Z,99.90
2022-10-05T20:46:21.628Z,99.90
2022-10-05T20:48:53.850Z,99.90
2022-10-05T20:51:23.937Z,99.90
2022-10-05T20:53:55.377Z,99.90
2022-10-05T20:56:26.359Z,99.90
2022-10-05T20:58:59.088Z,99.90
2022-10-05T21:01:31.869Z,99.90
2022-10-05T21:04:06.843Z,99.90
2022-10-05T21:06:36.981Z,99.90
2022-10-05T21:09:11.237Z,99.90
2022-10-05T21:11:42.302Z,99.90
2022-10-05T21:14:15.512Z,99.90
2022-10-05T21:16:46.197Z,99.90
2022-10-05T21:19:17.536Z,99.90
2022-10-05T21:21:49.137Z,99.90
2022-10-05T21:24:19.457Z,99.90
2022-10-05T21:26:49.901Z,99.90
2022-10-05T21:29:22.623Z,99.90
2022-10-05T21:31:52.796Z,99.90
2022-10-05T21:34:25.140Z,99.90
2022-10-05T21:36:55.214Z,99.90
2022-10-05T21:39:30.752Z,99.90
2022-10-05T21:42:00.851Z,99.90
2022-10-05T21:44:40.666Z,99.90
2022-10-05T21:47:10.800Z,99.90
2022-10-05T21:49:41.016Z,99.90
2022-10-05T21:52:11.182Z,99.90
2022-10-05T21:54:44.180Z,99.90
2022-10-05T21:57:15.673Z,99.90
2022-10-05T21:59:48.451Z,99.90
2022-10-05T22:02:18.523Z,99.90
2022-10-05T22:04:48.574Z,99.90
2022-10-05T22:07:24.749Z,99.90
2022-10-05T22:09:55.537Z,99.90
2022-10-05T22:12:26.485Z,99.90
2022-10-05T22:14:59.109Z,99.90
2022-10-05T22:17:32.267Z,99.90
2022-10-05T22:20:06.860Z,99.90
2022-10-05T22:22:37.280Z,99.90
2022-10-05T22:25:10.684Z,99.90
2022-10-05T22:27:40.836Z,99.90
2022-10-05T22:30:15.719Z,99.90
2022-10-05T22:32:46.617Z,99.90
2022-10-05T22:35:16.899Z,99.90
2022-10-05T22:37:50.112Z,99.90
2022-10-05T22:40:20.428Z,99.90
2022-10-05T22:42:56.199Z,99.90
2022-10-05T22:45:32.399Z,99.90
2022-10-05T22:48:05.281Z,99.90
2022-10-05T22:50:39.193Z,99.90
2022-10-05T22:53:12.564Z,99.90
2022-10-05T22:55:50.186Z,99.90
2022-10-05T22:58:20.301Z,99.90
2022-10-05T23:00:58.450Z,99.90
2022-10-05T23:03:32.335Z,99.90
2022-10-05T23:06:07.455Z,99.90
2022-10-05T23:08:40.119Z,99.90
2022-10-05T23:11:12.886Z,99.90
2022-10-05T23:13:43.685Z,99.90
2022-10-05T23:16:25.957Z,99.90
2022-10-05T23:19:00.160Z,99.90
2022-10-05T23:21:32.820Z,99.90
2022-10-05T23:24:03.031Z,99.90
2022-10-05T23:26:35.289Z,99.90
2022-10-05T23:29:05.399Z,99.90
2022-10-05T23:31:38.073Z,99.90
2022-10-05T23:34:11.219Z,99.90
2022-10-05T23:36:41.525Z,99.90
2022-10-05T23:39:13.631Z,99.90
2022-10-05T23:41:48.914Z,99.90
2022-10-05T23:44:18.989Z,99.90
2022-10-05T23:46:51.735Z,99.90
2022-10-05T23:49:21.812Z,99.90
2022-10-05T23:52:01.212Z,99.90
2022-10-05T23:54:31.271Z,99.90
2022-10-05T23:57:01.352Z,99.90
2022-10-05T23:59:34.120Z,99.90
